Time;durP1;ratioP1;P1;durP2;ratioP2;P2;SDS_P1;SDS_P2;PMS_P1;PMS_P2;Temp;Humidity;BMP_temperature;BMP_pressure;BME280_temperature;BME280_humidity;BME280_pressure;Samples;Min_cycle;Max_cycle;Signal;HPM_P1;HPM_P2
2023/05/10 04:00:45;;;;;;;3.78;3.25;;;;;;;11.25;87.73;100609.56;6550319;27;33261;-83
2023/05/10 04:03:48;;;;;;;3.50;3.12;;;;;;;11.24;87.47;100606.03;6531419;27;33906;-83
2023/05/10 04:06:51;;;;;;;5.47;3.42;;;;;;;11.24;87.75;100606.03;6531127;27;33863;-83
2023/05/10 04:09:54;;;;;;;3.47;2.92;;;;;;;11.28;87.42;100610.03;6530877;27;34348;-83
2023/05/10 04:12:57;;;;;;;4.12;3.42;;;;;;;11.32;88.64;100606.00;6549998;27;33826;-82
2023/05/10 04:16:01;;;;;;;3.67;3.22;;;;;;;11.42;88.39;100608.47;6552308;27;34555;-83
2023/05/10 04:19:03;;;;;;;4.82;3.50;;;;;;;11.49;88.29;100601.31;6554895;27;34061;-83
2023/05/10 04:22:06;;;;;;;6.12;3.40;;;;;;;11.52;88.53;100602.81;6557233;27;34565;-83
2023/05/10 04:25:09;;;;;;;4.97;3.30;;;;;;;11.54;88.25;100603.50;6554710;27;34080;-83
2023/05/10 04:28:12;;;;;;;5.82;3.65;;;;;;;11.56;88.38;100594.22;6557138;27;34196;-83
2023/05/10 04:31:15;;;;;;;6.47;3.10;;;;;;;11.63;86.23;100604.28;6532147;27;33944;-83
2023/05/10 04:34:18;;;;;;;5.12;3.37;;;;;;;11.69;85.91;100609.78;6550346;27;33928;-83
2023/05/10 04:37:22;;;;;;;4.50;3.60;;;;;;;11.56;86.40;100607.69;6550777;27;33920;-83
2023/05/10 04:40:26;;;;;;;5.12;3.45;;;;;;;11.45;86.45;100604.56;6541212;27;34149;-82
2023/05/10 04:43:28;;;;;;;5.00;3.37;;;;;;;11.44;86.92;100608.28;6567657;27;34973;-83
2023/05/10 04:46:31;;;;;;;5.15;3.58;;;;;;;11.27;88.71;100610.22;6541272;27;33171;-83
2023/05/10 04:49:34;;;;;;;7.50;3.65;;;;;;;11.27;87.62;100612.94;6556368;27;33955;-83
2023/05/10 04:52:37;;;;;;;4.20;3.55;;;;;;;11.36;87.38;100606.47;6555306;27;34106;-83
2023/05/10 04:55:40;;;;;;;7.37;3.75;;;;;;;11.40;88.09;100609.66;6557664;27;33689;-83
2023/05/10 04:58:43;;;;;;;5.85;3.80;;;;;;;11.49;87.89;100606.72;6551384;27;34258;-83
2023/05/10 05:01:46;;;;;;;4.15;3.40;;;;;;;11.62;86.76;100614.22;6559013;27;33891;-83
2023/05/10 05:04:49;;;;;;;4.75;3.90;;;;;;;11.87;85.21;100612.22;6559788;27;34083;-83
2023/05/10 05:07:52;;;;;;;6.32;4.05;;;;;;;12.08;84.22;100614.25;6559115;27;34508;-83
2023/05/10 05:10:55;;;;;;;4.53;3.58;;;;;;;12.28;82.45;100611.88;6582435;27;34317;-84
2023/05/10 05:13:58;;;;;;;5.03;3.67;;;;;;;12.35;81.44;100614.69;6580338;27;34586;-84
2023/05/10 05:17:02;;;;;;;6.45;3.80;;;;;;;12.36;82.06;100608.25;6561680;27;34514;-83
2023/05/10 05:20:05;;;;;;;4.85;3.92;;;;;;;12.44;81.29;100614.41;6559760;27;34312;-83
2023/05/10 05:23:08;;;;;;;4.93;3.87;;;;;;;12.53;81.70;100611.62;6577032;27;34291;-83
2023/05/10 05:26:11;;;;;;;5.47;3.67;;;;;;;12.38;80.53;100623.25;6576963;27;35017;-83
2023/05/10 05:29:14;;;;;;;4.65;3.90;;;;;;;12.30;81.19;100614.41;6578997;27;34748;-83
2023/05/10 05:32:17;;;;;;;7.95;4.50;;;;;;;12.31;82.06;100616.91;6576978;27;34025;-83
2023/05/10 05:35:20;;;;;;;5.60;3.97;;;;;;;12.50;82.52;100614.72;6559012;27;34462;-83
2023/05/10 05:38:23;;;;;;;6.65;4.22;;;;;;;12.55;81.26;100625.78;6577398;27;33936;-83
2023/05/10 05:41:26;;;;;;;8.43;4.25;;;;;;;12.74;80.79;100624.41;6577416;27;33867;-82
2023/05/10 05:44:29;;;;;;;5.25;3.80;;;;;;;12.79;79.77;100635.50;6578680;27;34951;-83
2023/05/10 05:47:32;;;;;;;8.52;4.20;;;;;;;13.07;78.55;100628.38;6578909;27;34453;-83
2023/05/10 05:50:35;;;;;;;5.25;3.83;;;;;;;13.27;76.90;100631.38;6577098;27;34632;-83
2023/05/10 05:53:38;;;;;;;3.95;3.42;;;;;;;13.43;76.98;100633.03;6577283;27;34757;-87
2023/05/10 05:56:41;;;;;;;7.65;4.05;;;;;;;13.31;75.83;100627.28;6559131;27;33753;-87
2023/05/10 05:59:44;;;;;;;7.80;4.15;;;;;;;13.15;76.39;100632.88;6596743;27;34309;-87
2023/05/10 06:02:47;;;;;;;5.00;3.90;;;;;;;12.98;77.23;100637.63;6585309;27;33770;-87
2023/05/10 06:05:50;;;;;;;6.05;4.00;;;;;;;13.12;77.15;100641.34;6574286;27;34665;-83
2023/05/10 06:08:52;;;;;;;4.30;3.90;;;;;;;13.50;76.00;100638.53;6584936;27;33733;-84
2023/05/10 06:11:55;;;;;;;6.07;4.12;;;;;;;13.69;74.24;100635.22;6552863;27;34241;-84
2023/05/10 06:14:58;;;;;;;5.07;3.95;;;;;;;13.75;73.37;100645.25;6607035;27;34749;-83
2023/05/10 06:18:01;;;;;;;4.35;3.72;;;;;;;13.55;74.58;100636.91;6591491;27;34291;-83
2023/05/10 06:21:04;;;;;;;4.18;3.58;;;;;;;13.54;74.54;100642.50;6573237;27;33774;-83
2023/05/10 06:24:07;;;;;;;5.97;4.12;;;;;;;13.60;74.86;100641.75;6571168;27;33696;-83
2023/05/10 06:27:09;;;;;;;4.47;3.90;;;;;;;13.63;74.92;100644.09;6575147;27;34085;-83
2023/05/10 06:30:14;;;;;;;6.62;3.83;;;;;;;13.70;75.72;100639.56;6567980;27;34288;-83
2023/05/10 06:33:17;;;;;;;4.80;3.60;;;;;;;14.03;73.06;100644.47;6568714;27;35048;-83
2023/05/10 06:36:20;;;;;;;7.62;4.20;;;;;;;14.45;72.18;100659.00;6585512;27;34025;-83
2023/05/10 06:39:23;;;;;;;6.75;4.15;;;;;;;14.29;71.31;100662.84;6605787;27;33843;-83
2023/05/10 06:42:27;;;;;;;7.50;4.15;;;;;;;14.42;71.71;100649.41;6584355;27;34607;-84
2023/05/10 06:45:29;;;;;;;4.70;3.72;;;;;;;14.73;71.42;100657.16;6568377;27;35568;-85
2023/05/10 06:48:33;;;;;;;5.72;4.20;;;;;;;14.64;71.41;100652.09;6568091;27;33892;-85
2023/05/10 06:51:36;;;;;;;4.82;3.92;;;;;;;14.75;70.60;100646.13;6567564;27;33548;-84
2023/05/10 06:55:00;;;;;;;6.72;3.83;;;;;;;14.77;70.62;100652.22;6544172;27;34259;-83
2023/05/10 06:58:03;;;;;;;4.37;3.78;;;;;;;14.99;69.77;100649.41;6585522;27;34574;-83
2023/05/10 07:01:06;;;;;;;4.30;3.80;;;;;;;14.96;69.00;100646.03;6585007;27;34036;-84
2023/05/10 07:04:09;;;;;;;4.28;3.65;;;;;;;14.46;71.15;100653.41;6566801;27;34564;-84
2023/05/10 07:07:12;;;;;;;5.40;4.10;;;;;;;14.79;72.31;100652.81;6585330;27;34629;-84
2023/05/10 07:10:14;;;;;;;5.07;3.80;;;;;;;15.00;69.56;100648.34;6570242;27;33785;-83
2023/05/10 07:13:25;;;;;;;8.43;4.10;;;;;;;15.06;69.73;100642.12;6570026;27;33971;-82
2023/05/10 07:16:28;;;;;;;4.30;3.85;;;;;;;15.06;68.64;100644.84;6586494;27;34025;-83
2023/05/10 07:19:32;;;;;;;4.85;4.20;;;;;;;15.10;68.37;100643.41;6568831;27;34647;-83
2023/05/10 07:22:35;;;;;;;5.18;3.85;;;;;;;15.14;69.10;100648.22;6579052;27;33749;-82
2023/05/10 07:25:38;;;;;;;4.65;4.05;;;;;;;15.42;68.39;100647.31;6594564;27;34821;-82
2023/05/10 07:28:41;;;;;;;5.75;3.95;;;;;;;15.25;68.32;100635.12;6622945;27;34361;-81
2023/05/10 07:31:44;;;;;;;6.37;4.22;;;;;;;15.48;67.46;100634.81;6607826;27;35145;-82
2023/05/10 07:34:46;;;;;;;6.37;3.53;;;;;;;16.23;65.35;100641.03;6605195;27;33954;-82
2023/05/10 07:37:49;;;;;;;4.20;3.80;;;;;;;16.30;63.23;100633.72;6585862;27;33817;-82
2023/05/10 07:40:52;;;;;;;7.97;3.67;;;;;;;16.54;61.85;100621.38;6585779;27;34655;-82
2023/05/10 07:43:55;;;;;;;4.43;3.80;;;;;;;16.57;60.95;100630.97;6586176;27;33930;-82
2023/05/10 07:46:58;;;;;;;5.43;4.00;;;;;;;16.44;61.76;100624.53;6586209;27;34554;-82
2023/05/10 07:50:01;;;;;;;6.12;3.58;;;;;;;16.99;60.00;100616.91;6587107;27;33409;-82
2023/05/10 07:53:04;;;;;;;4.30;3.80;;;;;;;17.29;59.30;100618.28;6587132;27;33915;-82
2023/05/10 07:56:27;;;;;;;5.70;3.90;;;;;;;17.33;58.43;100623.06;6589027;27;33842;-82
2023/05/10 07:59:29;;;;;;;5.43;3.70;;;;;;;16.97;59.96;100629.87;6611686;27;34998;-82
2023/05/10 08:02:34;;;;;;;3.72;3.42;;;;;;;16.89;60.29;100629.28;6610088;27;33940;-82
2023/05/10 08:05:40;;;;;;;6.22;3.55;;;;;;;16.87;59.72;100620.50;6591439;27;34053;-82
2023/05/10 08:08:45;;;;;;;6.35;3.90;;;;;;;17.01;59.77;100624.84;6587661;27;33747;-82
2023/05/10 08:11:51;;;;;;;6.68;3.55;;;;;;;16.65;60.85;100625.34;6605994;27;34573;-82
2023/05/10 08:14:53;;;;;;;4.93;3.00;;;;;;;16.85;61.19;100628.88;6586952;27;33783;-82
2023/05/10 08:17:56;;;;;;;4.03;3.10;;;;;;;16.90;59.88;100633.66;6588968;27;34455;-82
2023/05/10 08:20:59;;;;;;;3.35;3.05;;;;;;;16.95;59.03;100626.53;6589068;27;34451;-82
2023/05/10 08:24:02;;;;;;;3.75;3.40;;;;;;;16.78;60.47;100617.16;6594142;27;34723;-82
2023/05/10 08:27:05;;;;;;;5.45;3.10;;;;;;;17.20;58.56;100628.56;6589422;27;34142;-81
2023/05/10 08:30:09;;;;;;;3.87;3.10;;;;;;;17.70;56.95;100626.00;6588844;27;33901;-81
2023/05/10 08:33:11;;;;;;;3.37;2.72;;;;;;;17.48;55.82;100620.03;6587442;27;34196;-82
2023/05/10 08:36:19;;;;;;;4.62;3.12;;;;;;;17.43;55.70;100625.28;6584748;27;34517;-82
2023/05/10 08:39:23;;;;;;;5.25;3.30;;;;;;;16.63;59.66;100628.25;6596040;27;35199;-82
2023/05/10 08:42:37;;;;;;;3.80;3.42;;;;;;;16.57;60.17;100622.84;6587017;27;33995;-82
2023/05/10 08:45:43;;;;;;;3.83;3.35;;;;;;;16.76;59.44;100627.44;6605982;27;33618;-82
2023/05/10 08:48:47;;;;;;;4.18;3.10;;;;;;;17.35;57.77;100615.50;6606079;27;33542;-82
2023/05/10 08:51:55;;;;;;;3.87;3.30;;;;;;;17.33;55.97;100625.78;6586919;27;34402;-82
2023/05/10 08:54:58;;;;;;;4.57;3.05;;;;;;;17.43;56.29;100622.56;6606541;27;33781;-82
2023/05/10 08:58:03;;;;;;;3.78;3.33;;;;;;;17.63;54.44;100615.12;6586559;27;33489;-82
2023/05/10 09:01:07;;;;;;;7.50;3.70;;;;;;;17.64;55.22;100621.44;6586248;27;34557;-82
2023/05/10 09:04:11;;;;;;;4.20;3.50;;;;;;;17.27;55.96;100620.37;6605773;27;34801;-82
2023/05/10 09:07:15;;;;;;;5.40;3.40;;;;;;;17.42;55.60;100618.19;6568597;27;33722;-82
2023/05/10 09:10:20;;;;;;;6.25;3.50;;;;;;;17.62;55.40;100620.81;6586306;27;33981;-82
2023/05/10 09:13:24;;;;;;;3.40;3.10;;;;;;;18.07;54.65;100618.84;6605952;27;34486;-82
2023/05/10 09:16:27;;;;;;;3.40;3.10;;;;;;;18.66;51.93;100613.09;6606494;27;33886;-82
2023/05/10 09:19:30;;;;;;;4.75;3.50;;;;;;;18.85;51.47;100619.44;6585598;27;33860;-82
2023/05/10 09:22:34;;;;;;;4.35;2.87;;;;;;;18.93;48.56;100614.53;6605881;27;34859;-82
2023/05/10 09:25:38;;;;;;;10.07;3.30;;;;;;;18.14;51.55;100616.09;6606491;27;33929;-82
2023/05/10 09:29:08;;;;;;;4.05;3.08;;;;;;;18.54;51.98;100619.31;6587224;27;34059;-83
2023/05/10 09:32:11;;;;;;;4.43;3.28;;;;;;;18.99;48.78;100608.16;6608359;27;34108;-83
2023/05/10 09:35:27;;;;;;;4.15;3.25;;;;;;;18.56;49.61;100605.44;6586567;27;34558;-83
2023/05/10 09:38:53;;;;;;;3.87;3.30;;;;;;;18.65;50.21;100606.81;6586468;27;33453;-83
2023/05/10 09:41:56;;;;;;;3.37;2.97;;;;;;;18.56;48.96;100600.81;6605774;27;35158;-83
2023/05/10 09:45:06;;;;;;;3.28;2.97;;;;;;;18.72;49.55;100604.88;6605039;27;33851;-83
2023/05/10 09:48:09;;;;;;;3.67;2.80;;;;;;;18.46;50.38;100594.22;6606367;27;33897;-83
2023/05/10 09:51:22;;;;;;;3.33;2.92;;;;;;;18.96;49.51;100599.59;6586913;27;34568;-83
2023/05/10 09:54:25;;;;;;;3.47;3.17;;;;;;;19.37;47.29;100598.88;6605531;27;34876;-82
2023/05/10 09:57:28;;;;;;;3.47;3.17;;;;;;;19.28;48.27;100591.25;6586676;27;33606;-83
2023/05/10 10:00:36;;;;;;;3.97;3.00;;;;;;;19.41;47.60;100600.06;6576646;27;34121;-83
2023/05/10 10:03:43;;;;;;;4.20;2.78;;;;;;;19.62;47.86;100592.44;6578316;27;33750;-83
2023/05/10 10:06:45;;;;;;;4.18;2.80;;;;;;;19.40;48.40;100586.66;6576848;27;34297;-83
2023/05/10 10:09:50;;;;;;;3.00;2.80;;;;;;;19.26;48.23;100596.91;6576509;27;34522;-83
2023/05/10 10:12:53;;;;;;;3.05;2.70;;;;;;;19.73;46.89;100579.91;6591600;27;34557;-83
2023/05/10 10:15:57;;;;;;;3.20;2.90;;;;;;;20.00;45.89;100572.13;6569404;27;33976;-83
2023/05/10 10:19:00;;;;;;;3.70;2.90;;;;;;;20.25;45.23;100570.03;6579581;27;33876;-83
2023/05/10 10:22:06;;;;;;;3.08;2.83;;;;;;;20.40;44.42;100572.28;6583223;27;33942;-83
2023/05/10 10:25:10;;;;;;;4.15;2.95;;;;;;;20.12;44.31;100576.56;6563562;27;33988;-83
2023/05/10 10:28:21;;;;;;;5.90;2.67;;;;;;;20.03;43.77;100564.28;6581979;27;34138;-82
2023/05/10 10:31:33;;;;;;;4.25;2.67;;;;;;;20.57;43.77;100564.22;6585145;27;34155;-83
2023/05/10 10:34:40;;;;;;;2.60;2.40;;;;;;;21.01;42.85;100559.13;6578345;27;33796;-83
2023/05/10 10:37:45;;;;;;;3.00;2.20;;;;;;;20.42;42.44;100556.47;6560079;27;34004;-83
2023/05/10 10:40:48;;;;;;;2.40;2.20;;;;;;;20.81;43.69;100551.34;6575890;27;33734;-83
2023/05/10 10:44:33;;;;;;;5.10;2.60;;;;;;;20.82;41.09;100563.94;6575759;27;33961;-83
2023/05/10 10:47:37;;;;;;;5.53;2.47;;;;;;;19.65;44.04;100557.31;6577373;27;33516;-82
2023/05/10 10:50:46;;;;;;;2.70;2.50;;;;;;;19.89;42.35;100555.50;6576538;27;33624;-82
2023/05/10 10:53:49;;;;;;;7.32;2.47;;;;;;;19.34;43.18;100541.19;6578776;27;35006;-84
2023/05/10 10:57:15;;;;;;;2.08;1.92;;;;;;;20.87;42.55;100546.81;6576694;27;34588;-84
2023/05/10 11:00:21;;;;;;;2.35;2.15;;;;;;;20.70;40.66;100536.59;6576049;27;33905;-84
2023/05/10 11:03:25;;;;;;;3.45;2.40;;;;;;;20.84;40.67;100529.78;6587564;27;33458;-84
2023/05/10 11:06:35;;;;;;;2.22;2.05;;;;;;;22.47;38.27;100521.97;6578722;27;35373;-84
2023/05/10 11:09:40;;;;;;;2.20;2.00;;;;;;;23.98;35.77;100510.19;6578843;27;34176;-83
2023/05/10 11:13:02;;;;;;;2.03;1.92;;;;;;;24.08;33.94;100517.69;6577486;27;33903;-84
2023/05/10 11:16:11;;;;;;;4.37;2.35;;;;;;;22.24;36.80;100506.56;6577033;27;33592;-84
2023/05/10 11:19:16;;;;;;;2.17;1.98;;;;;;;20.86;39.26;100521.34;6577824;27;33753;-84
2023/05/10 11:22:18;;;;;;;4.12;2.00;;;;;;;20.26;41.16;100510.69;6560078;27;34929;-83
2023/05/10 11:25:28;;;;;;;3.25;1.90;;;;;;;21.57;38.59;100512.84;6577656;27;33838;-84
2023/05/10 11:28:32;;;;;;;2.25;2.05;;;;;;;23.97;34.49;100502.19;6577795;27;34255;-87
2023/05/10 11:31:35;;;;;;;5.47;1.92;;;;;;;25.01;31.65;100486.81;6560864;27;34206;-87
2023/05/10 11:34:38;;;;;;;3.35;1.90;;;;;;;23.16;34.26;100489.34;6578612;27;33911;-84
2023/05/10 11:37:43;;;;;;;3.85;1.80;;;;;;;21.57;37.26;100494.50;6576515;27;34305;-83
2023/05/10 11:40:46;;;;;;;2.97;2.05;;;;;;;23.87;34.33;100485.59;6558715;27;35157;-83
2023/05/10 11:43:51;;;;;;;3.33;1.62;;;;;;;26.45;31.46;100471.91;6577698;27;33758;-83
2023/05/10 11:46:54;;;;;;;2.15;1.50;;;;;;;26.44;30.22;100475.78;6578830;27;34984;-83
2023/05/10 11:49:57;;;;;;;1.60;1.50;;;;;;;24.20;32.74;100476.22;6576523;27;33729;-83
2023/05/10 11:53:01;;;;;;;2.72;1.70;;;;;;;23.85;32.55;100485.06;6578133;27;34022;-83
2023/05/10 11:56:09;;;;;;;2.33;1.58;;;;;;;22.72;35.10;100489.34;6577428;27;33893;-83
2023/05/10 11:59:14;;;;;;;1.77;1.67;;;;;;;21.89;36.29;100481.06;6585407;27;33941;-83
2023/05/10 12:02:17;;;;;;;2.03;1.92;;;;;;;21.08;38.54;100485.91;6568426;27;33888;-83
2023/05/10 12:05:21;;;;;;;2.20;2.00;;;;;;;20.49;39.34;100491.53;6585004;27;33694;-83
2023/05/10 12:08:26;;;;;;;1.92;1.83;;;;;;;19.91;41.04;100498.69;6605824;27;34251;-83
2023/05/10 12:11:29;;;;;;;2.12;1.92;;;;;;;19.98;40.79;100495.84;6605180;27;34157;-83
2023/05/10 12:14:34;;;;;;;3.30;1.70;;;;;;;20.15;40.20;100488.59;6604841;27;33950;-83
2023/05/10 12:17:39;;;;;;;2.53;1.80;;;;;;;21.12;38.85;100486.25;6605068;27;33752;-83
2023/05/10 12:20:45;;;;;;;3.78;2.08;;;;;;;20.94;38.10;100488.13;6605875;27;34933;-83
2023/05/10 12:23:53;;;;;;;2.65;2.00;;;;;;;20.71;38.74;100479.97;6611620;27;33875;-83
2023/05/10 12:26:55;;;;;;;3.55;1.83;;;;;;;20.42;40.14;100482.62;6608508;27;34545;-83
2023/05/10 12:30:02;;;;;;;1.95;1.83;;;;;;;20.31;38.94;100483.47;6572648;27;34060;-83
2023/05/10 12:33:09;;;;;;;1.85;1.65;;;;;;;20.61;38.63;100477.84;6618058;27;33772;-83
2023/05/10 12:36:14;;;;;;;2.62;2.10;;;;;;;20.97;38.92;100470.34;6612744;27;33541;-83
2023/05/10 12:39:17;;;;;;;2.00;1.80;;;;;;;21.35;38.72;100477.91;6606193;27;33311;-83
2023/05/10 12:42:20;;;;;;;3.92;1.85;;;;;;;20.89;38.51;100482.53;6550909;27;34140;-83
2023/05/10 12:45:23;;;;;;;1.90;1.70;;;;;;;21.13;38.23;100464.09;6586260;27;34831;-83
2023/05/10 12:48:28;;;;;;;2.33;1.85;;;;;;;22.65;35.52;100475.00;6603691;27;33911;-82
2023/05/10 12:51:31;;;;;;;3.87;1.80;;;;;;;22.18;36.27;100462.59;6585932;27;33843;-83
2023/05/10 12:54:34;;;;;;;2.00;1.90;;;;;;;21.56;37.69;100459.12;6586850;27;34520;-83
2023/05/10 12:57:36;;;;;;;3.05;1.90;;;;;;;20.75;38.96;100462.00;6593860;27;34066;-83
2023/05/10 13:00:39;;;;;;;1.95;1.77;;;;;;;20.41;39.94;100456.34;6606761;27;34984;-82
2023/05/10 13:03:43;;;;;;;1.90;1.80;;;;;;;20.38;39.71;100454.09;6585588;27;33923;-83
2023/05/10 13:06:46;;;;;;;2.22;1.95;;;;;;;20.69;39.25;100439.19;6586152;27;34875;-83
2023/05/10 13:09:48;;;;;;;2.00;1.90;;;;;;;20.91;39.58;100447.53;6568733;27;33409;-84
2023/05/10 13:12:51;;;;;;;2.05;1.58;;;;;;;22.04;37.76;100435.75;6600323;27;34045;-85
2023/05/10 13:15:54;;;;;;;2.62;1.67;;;;;;;22.69;35.72;100428.66;6585503;27;35453;-85
2023/05/10 13:18:58;;;;;;;2.62;1.40;;;;;;;22.75;35.25;100444.94;6568624;27;34942;-85
2023/05/10 13:22:01;;;;;;;1.65;1.50;;;;;;;21.49;36.48;100440.94;6595305;27;33843;-87
2023/05/10 13:25:04;;;;;;;2.15;1.60;;;;;;;20.96;36.52;100431.22;6616958;27;34114;-88
2023/05/10 13:28:07;;;;;;;1.67;1.25;;;;;;;22.97;34.41;100428.47;6582637;27;33920;-88
2023/05/10 13:31:12;;;;;;;1.40;1.23;;;;;;;24.29;31.55;100416.03;6587810;27;33977;-84
2023/05/10 13:34:14;;;;;;;1.62;1.40;;;;;;;25.53;30.00;100413.28;6606303;27;33381;-83
2023/05/10 13:37:17;;;;;;;1.40;1.30;;;;;;;24.61;31.10;100410.41;6606243;27;33536;-83
2023/05/10 13:40:20;;;;;;;1.90;1.30;;;;;;;24.20;31.90;100408.28;6590316;27;34097;-84
2023/05/10 13:43:24;;;;;;;1.40;1.30;;;;;;;23.64;33.24;100396.91;6570967;27;35079;-83
2023/05/10 13:46:27;;;;;;;1.58;1.30;;;;;;;23.83;33.37;100391.81;6619307;27;33474;-84
2023/05/10 13:49:30;;;;;;;1.70;1.60;;;;;;;23.68;33.02;100372.47;6601275;27;33853;-84
2023/05/10 13:52:33;;;;;;;1.40;1.30;;;;;;;24.02;31.84;100391.41;6583254;27;34270;-83
2023/05/10 13:55:36;;;;;;;1.60;1.50;;;;;;;24.54;30.96;100399.66;6586145;27;34542;-83
2023/05/10 13:58:38;;;;;;;3.08;1.37;;;;;;;22.70;33.04;100400.97;6568157;27;33845;-83
2023/05/10 14:01:42;;;;;;;1.50;1.40;;;;;;;22.10;34.54;100399.94;6606037;27;33610;-84
2023/05/10 14:04:46;;;;;;;1.35;1.25;;;;;;;22.77;33.63;100379.63;6605308;27;33972;-83
2023/05/10 14:07:50;;;;;;;1.98;1.40;;;;;;;24.23;31.37;100373.06;6586401;27;34573;-84
2023/05/10 14:10:53;;;;;;;1.50;1.40;;;;;;;24.27;31.26;100372.25;6606037;27;34632;-84
2023/05/10 14:13:58;;;;;;;2.33;1.37;;;;;;;24.19;31.16;100365.34;6569064;27;34350;-84
2023/05/10 14:17:01;;;;;;;6.20;1.35;;;;;;;23.58;31.14;100365.00;6568214;27;33519;-85
2023/05/10 14:20:05;;;;;;;3.60;1.55;;;;;;;23.17;32.43;100370.16;6568615;27;33857;-84
2023/05/10 14:23:08;;;;;;;1.42;1.30;;;;;;;22.26;32.92;100368.09;6586740;27;33929;-84
2023/05/10 14:26:13;;;;;;;5.80;1.42;;;;;;;22.82;32.97;100362.41;6586948;27;34274;-84
2023/05/10 14:29:16;;;;;;;1.95;1.50;;;;;;;22.63;32.70;100367.41;6568073;27;33903;-84
2023/05/10 14:32:21;;;;;;;1.37;1.27;;;;;;;22.18;33.26;100355.66;6573395;27;33825;-84
2023/05/10 14:35:24;;;;;;;2.35;1.48;;;;;;;22.26;33.13;100369.97;6589777;27;33750;-84
2023/05/10 14:38:27;;;;;;;1.27;1.15;;;;;;;22.02;31.93;100361.16;6592910;27;34115;-84
2023/05/10 14:41:30;;;;;;;1.20;1.20;;;;;;;21.36;33.01;100356.38;6590767;27;33941;-84
2023/05/10 14:44:33;;;;;;;1.35;1.15;;;;;;;21.22;33.60;100363.22;6578644;27;303196;-84
2023/05/10 14:47:36;;;;;;;3.40;1.42;;;;;;;21.21;33.79;100361.59;6605786;27;33957;-84
2023/05/10 14:50:39;;;;;;;2.40;1.50;;;;;;;20.95;34.35;100366.63;6585862;27;33933;-84
2023/05/10 14:53:42;;;;;;;1.30;1.20;;;;;;;20.69;36.37;100362.59;6586578;27;34058;-84
2023/05/10 14:56:49;;;;;;;3.10;1.87;;;;;;;20.42;37.26;100367.78;6593440;27;33826;-85
2023/05/10 14:59:52;;;;;;;2.70;1.50;;;;;;;20.04;37.78;100350.06;6586218;27;33870;-84
2023/05/10 15:02:55;;;;;;;5.18;1.50;;;;;;;19.73;38.68;100372.31;6585626;27;35214;-85
2023/05/10 15:05:59;;;;;;;1.50;1.30;;;;;;;19.59;38.67;100366.22;6586286;27;33898;-84
2023/05/10 15:09:05;;;;;;;3.33;1.40;;;;;;;19.14;38.62;100373.06;6586140;27;33808;-85
2023/05/10 15:12:08;;;;;;;2.17;1.48;;;;;;;19.08;38.62;100371.28;6586110;27;33978;-84
2023/05/10 15:15:11;;;;;;;4.97;1.60;;;;;;;18.97;38.66;100378.34;6567790;27;35397;-84
2023/05/10 15:18:14;;;;;;;1.58;1.30;;;;;;;19.00;38.99;100377.06;6586556;27;33635;-84
2023/05/10 15:21:17;;;;;;;3.20;1.70;;;;;;;18.87;38.35;100371.81;6568156;27;33892;-84
2023/05/10 15:24:22;;;;;;;3.40;1.17;;;;;;;18.89;38.21;100367.75;6568955;27;34515;-84
2023/05/10 15:27:26;;;;;;;3.10;1.35;;;;;;;18.73;38.18;100365.69;6567902;27;35084;-84
2023/05/10 15:30:29;;;;;;;1.60;1.15;;;;;;;18.61;38.91;100367.53;6587825;27;33815;-84
2023/05/10 15:33:31;;;;;;;1.45;1.20;;;;;;;18.58;39.06;100368.84;6605305;27;33653;-89
2023/05/10 15:36:34;;;;;;;1.48;1.37;;;;;;;18.30;39.59;100370.22;6585829;27;34659;-88
2023/05/10 15:39:37;;;;;;;1.23;1.10;;;;;;;18.38;39.55;100369.09;6587386;27;33848;-88
2023/05/10 15:42:40;;;;;;;1.92;1.73;;;;;;;18.39;39.97;100369.91;6570608;27;33491;-85
2023/05/10 15:45:42;;;;;;;2.28;1.35;;;;;;;18.33;40.33;100369.75;6568045;27;34109;-84
2023/05/10 15:48:45;;;;;;;1.40;1.30;;;;;;;18.19;40.72;100365.53;6605214;27;34291;-84
2023/05/10 15:51:48;;;;;;;2.70;1.45;;;;;;;18.09;40.97;100362.53;6567578;27;34152;-85
2023/05/10 15:54:54;;;;;;;2.35;1.33;;;;;;;18.06;41.51;100360.25;6599247;27;33948;-85
